createdAt,value
2018-03-27T00:02:02.521Z,57.76
2018-03-27T00:04:33.587Z,58.20
2018-03-27T00:07:04.608Z,58.95
2018-03-27T00:09:35.646Z,59.08
2018-03-27T00:12:06.718Z,59.46
2018-03-27T00:14:37.787Z,59.60
2018-03-27T00:17:08.822Z,59.85
2018-03-27T00:19:39.873Z,60.15
2018-03-27T00:22:10.913Z,60.09
2018-03-27T00:24:41.985Z,59.95
2018-03-27T00:27:12.811Z,59.93
2018-03-27T00:29:56.027Z,60.12
2018-03-27T00:32:39.293Z,60.19
2018-03-27T00:35:22.495Z,60.20
2018-03-27T00:38:05.773Z,60.27
2018-03-27T00:40:42.701Z,60.34
2018-03-27T00:43:13.820Z,60.26
2018-03-27T00:45:44.824Z,60.21
2018-03-27T00:48:15.897Z,59.83
2018-03-27T00:50:46.912Z,59.65
2018-03-27T00:53:17.987Z,59.52
2018-03-27T00:55:48.997Z,59.45
2018-03-27T00:58:20.021Z,59.55
2018-03-27T01:00:51.057Z,59.60
2018-03-27T01:03:22.049Z,59.61
2018-03-27T01:05:53.062Z,59.59
2018-03-27T01:08:24.057Z,59.59
2018-03-27T01:10:55.068Z,59.45
2018-03-27T01:13:26.049Z,59.56
2018-03-27T01:15:57.032Z,59.47
2018-03-27T01:18:28.048Z,59.35
2018-03-27T01:20:59.055Z,59.45
2018-03-27T01:23:30.037Z,59.42
2018-03-27T01:26:01.039Z,59.29
2018-03-27T01:28:32.040Z,59.15
2018-03-27T01:31:03.063Z,59.31
2018-03-27T01:33:34.061Z,59.09
2018-03-27T01:36:05.056Z,58.90
2018-03-27T01:38:36.083Z,59.00
2018-03-27T01:41:07.091Z,58.96
2018-03-27T01:43:38.124Z,59.01
2018-03-27T01:46:09.113Z,59.28
2018-03-27T01:48:40.160Z,59.43
2018-03-27T01:51:11.122Z,59.50
2018-03-27T01:53:42.122Z,59.50
2018-03-27T01:56:13.116Z,59.80
2018-03-27T01:58:44.162Z,59.87
2018-03-27T02:01:15.200Z,59.92
2018-03-27T02:03:46.211Z,59.72
2018-03-27T02:06:17.181Z,60.05
2018-03-27T02:08:48.153Z,60.16
2018-03-27T02:11:25.269Z,60.27
2018-03-27T02:14:02.492Z,60.50
2018-03-27T02:16:39.530Z,60.78
2018-03-27T02:19:16.769Z,60.97
2018-03-27T02:21:54.856Z,60.98
2018-03-27T02:24:35.828Z,61.11
2018-03-27T02:27:06.810Z,61.49
2018-03-27T02:29:37.828Z,61.54
2018-03-27T02:32:08.781Z,61.50
2018-03-27T02:34:39.808Z,61.69
2018-03-27T02:37:10.813Z,61.38
2018-03-27T02:39:41.803Z,61.55
2018-03-27T02:42:12.834Z,61.72
2018-03-27T02:44:43.801Z,61.75
2018-03-27T02:47:14.865Z,61.71
2018-03-27T02:49:45.870Z,61.67
2018-03-27T02:52:16.932Z,61.77
2018-03-27T02:54:47.925Z,61.38
2018-03-27T02:57:19.003Z,61.68
2018-03-27T02:59:49.988Z,61.77
2018-03-27T03:02:20.996Z,61.75
2018-03-27T03:04:52.000Z,61.73
2018-03-27T03:07:23.014Z,61.53
2018-03-27T03:09:54.022Z,61.84
2018-03-27T03:12:25.004Z,61.83
2018-03-27T03:14:56.005Z,61.80
2018-03-27T03:17:27.009Z,61.54
2018-03-27T03:19:58.009Z,61.69
2018-03-27T03:22:29.026Z,61.81
2018-03-27T03:24:59.984Z,61.86
2018-03-27T03:27:30.971Z,61.80
2018-03-27T03:30:02.010Z,61.69
2018-03-27T03:32:32.947Z,61.73
2018-03-27T03:35:03.920Z,61.89
2018-03-27T03:37:34.874Z,62.02
2018-03-27T03:40:05.900Z,62.11
2018-03-27T03:42:36.864Z,62.11
2018-03-27T03:45:07.841Z,62.24
2018-03-27T03:47:38.789Z,62.43
2018-03-27T03:50:09.780Z,62.64
2018-03-27T03:52:40.795Z,62.86
2018-03-27T03:55:11.841Z,63.12
2018-03-27T03:57:42.822Z,63.27
2018-03-27T04:00:13.821Z,63.53
2018-03-27T04:02:44.784Z,63.81
2018-03-27T04:05:15.764Z,64.03
2018-03-27T04:07:46.762Z,64.46
2018-03-27T04:10:17.718Z,64.34
2018-03-27T04:12:48.710Z,64.36
2018-03-27T04:15:19.718Z,64.22
2018-03-27T04:17:50.722Z,64.37
2018-03-27T04:20:21.695Z,64.52
2018-03-27T04:22:52.730Z,64.47
2018-03-27T04:25:23.703Z,64.28
2018-03-27T04:27:54.727Z,64.10
2018-03-27T04:30:25.741Z,64.32
2018-03-27T04:32:56.764Z,64.33
2018-03-27T04:35:27.770Z,64.25
2018-03-27T04:37:58.749Z,64.10
2018-03-27T04:40:29.763Z,63.89
2018-03-27T04:43:00.718Z,63.78
2018-03-27T04:45:31.694Z,64.04
2018-03-27T04:48:02.684Z,63.83
2018-03-27T04:50:33.711Z,63.29
2018-03-27T04:53:04.680Z,62.95
2018-03-27T04:55:35.648Z,62.79
2018-03-27T04:58:06.624Z,62.63
2018-03-27T05:00:37.638Z,62.42
2018-03-27T05:03:08.607Z,62.54
2018-03-27T05:05:39.615Z,62.82
2018-03-27T05:08:10.592Z,63.46
2018-03-27T05:10:41.576Z,64.03
2018-03-27T05:13:12.569Z,64.48
2018-03-27T05:15:43.605Z,64.79
2018-03-27T05:18:14.551Z,64.87
2018-03-27T05:20:45.530Z,64.89
2018-03-27T05:23:16.537Z,64.75
2018-03-27T05:25:47.543Z,64.78
2018-03-27T05:28:18.580Z,65.11
2018-03-27T05:30:49.582Z,65.28
2018-03-27T05:33:20.620Z,65.34
2018-03-27T05:35:51.584Z,65.37
2018-03-27T05:38:22.572Z,65.38
2018-03-27T05:40:53.548Z,65.49
2018-03-27T05:43:24.541Z,65.44
2018-03-27T05:45:55.554Z,65.21
2018-03-27T05:48:26.535Z,64.92
2018-03-27T05:50:57.518Z,64.91
2018-03-27T05:53:28.479Z,64.95
2018-03-27T05:55:59.522Z,64.75
2018-03-27T05:58:30.463Z,64.64
2018-03-27T06:01:01.452Z,64.76
2018-03-27T06:03:32.438Z,64.92
2018-03-27T06:06:03.434Z,65.18
2018-03-27T06:08:34.556Z,65.11
2018-03-27T06:11:05.574Z,64.79
2018-03-27T06:13:36.544Z,64.52
2018-03-27T06:16:07.508Z,64.14
2018-03-27T06:18:38.502Z,63.75
2018-03-27T06:21:09.439Z,63.26
2018-03-27T06:23:40.429Z,62.45
2018-03-27T06:26:11.423Z,62.17
2018-03-27T06:28:42.431Z,61.96
2018-03-27T06:31:13.404Z,61.23
2018-03-27T06:33:44.417Z,59.78
2018-03-27T06:36:15.429Z,58.67
2018-03-27T06:38:46.484Z,58.08
2018-03-27T06:41:17.514Z,57.65
2018-03-27T06:43:48.516Z,57.32
2018-03-27T06:46:19.505Z,57.41
2018-03-27T06:48:50.484Z,57.37
2018-03-27T06:51:21.486Z,57.75
2018-03-27T06:53:52.464Z,57.95
2018-03-27T06:56:23.441Z,57.59
2018-03-27T06:58:54.402Z,57.24
2018-03-27T07:01:25.452Z,57.09
2018-03-27T07:03:56.387Z,56.56
2018-03-27T07:06:27.462Z,55.59
2018-03-27T07:08:58.491Z,55.52
2018-03-27T07:11:29.480Z,54.84
2018-03-27T07:14:00.507Z,53.96
2018-03-27T07:16:31.590Z,53.29
2018-03-27T07:19:02.567Z,52.58
2018-03-27T07:21:33.596Z,50.47
2018-03-27T07:24:04.604Z,49.33
2018-03-27T07:26:35.618Z,47.02
2018-03-27T07:29:06.613Z,45.97
2018-03-27T07:31:37.623Z,43.20
2018-03-27T07:34:08.679Z,39.82
2018-03-27T07:36:39.643Z,35.71
2018-03-27T07:39:10.623Z,32.82
2018-03-27T07:41:41.575Z,32.35
2018-03-27T07:44:12.587Z,31.43
2018-03-27T07:46:43.591Z,27.59
2018-03-27T07:49:14.610Z,23.30
2018-03-27T07:51:45.631Z,21.72
2018-03-27T07:54:16.591Z,19.91
2018-03-27T07:56:47.629Z,20.58
2018-03-27T07:59:18.698Z,22.46
2018-03-27T08:01:49.848Z,22.99
2018-03-27T08:04:20.831Z,20.26
2018-03-27T08:06:51.830Z,18.89
2018-03-27T08:09:22.813Z,19.16
2018-03-27T08:11:53.833Z,19.47
2018-03-27T08:14:24.836Z,18.96
2018-03-27T08:16:55.847Z,17.05
2018-03-27T08:19:26.875Z,16.27
2018-03-27T08:21:57.881Z,15.30
2018-03-27T08:24:28.881Z,14.60
2018-03-27T08:26:59.863Z,13.54
2018-03-27T08:29:30.828Z,12.88
2018-03-27T08:32:01.805Z,13.41
2018-03-27T08:34:32.828Z,13.44
2018-03-27T08:37:03.803Z,12.90
2018-03-27T08:39:34.802Z,11.37
2018-03-27T08:42:05.810Z,10.20
2018-03-27T08:44:36.910Z,9.64
2018-03-27T08:47:07.895Z,10.69
2018-03-27T08:49:38.861Z,13.33
2018-03-27T08:52:09.888Z,14.41
2018-03-27T08:54:40.854Z,13.90
2018-03-27T08:57:11.843Z,15.56
2018-03-27T08:59:42.830Z,16.59
2018-03-27T09:02:13.829Z,17.37
2018-03-27T09:04:44.817Z,16.94
2018-03-27T09:07:15.826Z,14.75
2018-03-27T09:09:47.018Z,14.88
2018-03-27T09:12:18.025Z,17.35
2018-03-27T09:14:48.982Z,18.53
2018-03-27T09:17:19.984Z,16.63
2018-03-27T09:19:50.955Z,15.68
2018-03-27T09:22:21.959Z,14.65
2018-03-27T09:24:52.947Z,12.66
2018-03-27T09:27:23.978Z,10.72
2018-03-27T09:29:54.948Z,9.33
2018-03-27T09:32:25.942Z,9.57
2018-03-27T09:34:56.949Z,9.79
2018-03-27T09:37:27.943Z,10.56
2018-03-27T09:39:58.921Z,10.51
2018-03-27T09:42:29.908Z,9.27
2018-03-27T09:45:00.914Z,9.78
2018-03-27T09:47:31.915Z,11.18
2018-03-27T09:50:02.917Z,13.02
2018-03-27T09:52:33.894Z,15.00
2018-03-27T09:55:04.910Z,16.84
2018-03-27T09:57:35.877Z,16.46
2018-03-27T10:00:06.931Z,16.20
2018-03-27T10:02:37.921Z,16.16
2018-03-27T10:05:08.928Z,15.92
2018-03-27T10:07:39.937Z,13.98
2018-03-27T10:10:10.970Z,12.41
2018-03-27T10:12:41.955Z,12.61
2018-03-27T10:15:12.937Z,12.23
2018-03-27T10:17:43.933Z,10.79
2018-03-27T10:20:14.948Z,9.28
2018-03-27T10:22:45.955Z,8.64
2018-03-27T10:25:16.984Z,7.93
2018-03-27T10:27:47.969Z,8.12
2018-03-27T10:30:18.964Z,8.39
2018-03-27T10:32:49.965Z,9.25
2018-03-27T10:35:20.917Z,9.64
2018-03-27T10:37:51.934Z,9.11
2018-03-27T10:40:22.936Z,8.22
2018-03-27T10:42:53.964Z,7.85
2018-03-27T10:45:25.030Z,8.98
2018-03-27T10:47:55.998Z,9.16
2018-03-27T10:50:27.015Z,9.78
2018-03-27T10:52:58.003Z,9.75
2018-03-27T10:55:29.005Z,9.91
2018-03-27T10:57:59.997Z,10.14
2018-03-27T11:00:31.010Z,10.15
2018-03-27T11:03:02.033Z,10.16
2018-03-27T11:05:33.056Z,10.77
2018-03-27T11:08:04.047Z,11.15
2018-03-27T11:10:35.036Z,11.38
2018-03-27T11:13:06.017Z,11.17
2018-03-27T11:15:37.013Z,11.31
2018-03-27T11:18:07.972Z,12.94
2018-03-27T11:20:38.982Z,14.13
2018-03-27T11:23:09.979Z,14.71
2018-03-27T11:25:40.992Z,15.05
2018-03-27T11:28:11.964Z,15.63
2018-03-27T11:30:42.927Z,16.67
2018-03-27T11:33:13.939Z,16.68
2018-03-27T11:35:44.915Z,16.65
2018-03-27T11:38:15.925Z,17.55
2018-03-27T11:40:46.925Z,19.27
2018-03-27T11:43:17.959Z,20.85
2018-03-27T11:45:48.972Z,21.38
2018-03-27T11:48:19.999Z,22.04
2018-03-27T11:50:50.963Z,22.03
2018-03-27T11:53:21.957Z,21.58
2018-03-27T11:55:52.959Z,21.88
2018-03-27T11:58:24.001Z,21.71
2018-03-27T12:00:55.012Z,20.98
2018-03-27T12:03:26.048Z,20.55
2018-03-27T12:05:57.049Z,20.60
2018-03-27T12:08:28.064Z,20.21
2018-03-27T12:10:59.057Z,20.38
2018-03-27T12:13:30.021Z,20.41
2018-03-27T12:16:01.037Z,21.08
2018-03-27T12:18:32.001Z,21.97
2018-03-27T12:21:03.022Z,23.04
2018-03-27T12:23:34.015Z,23.82
2018-03-27T12:26:05.020Z,24.46
2018-03-27T12:28:35.992Z,24.61
2018-03-27T12:31:07.052Z,25.33
2018-03-27T12:33:38.056Z,25.95
2018-03-27T12:36:09.047Z,26.12
2018-03-27T12:38:40.034Z,26.10
2018-03-27T12:41:11.028Z,25.61
2018-03-27T12:43:42.118Z,25.88
2018-03-27T12:46:13.090Z,26.13
2018-03-27T12:48:44.073Z,26.07
2018-03-27T12:51:15.086Z,26.27
2018-03-27T12:53:46.083Z,26.09
2018-03-27T12:56:17.062Z,26.52
2018-03-27T12:58:48.047Z,26.54
2018-03-27T13:01:19.009Z,25.50
2018-03-27T13:03:49.997Z,25.04
2018-03-27T13:06:20.955Z,24.52
2018-03-27T13:08:51.941Z,23.65
2018-03-27T13:11:22.927Z,23.56
2018-03-27T13:13:53.920Z,24.26
2018-03-27T13:16:24.936Z,24.71
2018-03-27T13:18:55.917Z,24.89
2018-03-27T13:21:26.934Z,26.79
2018-03-27T13:23:58.135Z,28.63
2018-03-27T13:26:29.129Z,29.66
2018-03-27T13:29:00.121Z,30.49
2018-03-27T13:31:31.139Z,29.95
2018-03-27T13:34:02.113Z,30.13
2018-03-27T13:36:33.076Z,30.61
2018-03-27T13:39:05.057Z,30.80
2018-03-27T13:41:36.024Z,29.94
2018-03-27T13:44:07.019Z,29.44
2018-03-27T13:46:38.024Z,29.49
2018-03-27T13:49:08.997Z,30.00
2018-03-27T13:51:40.007Z,30.39
2018-03-27T13:54:10.981Z,29.98
2018-03-27T13:56:41.997Z,28.80
2018-03-27T13:59:13.002Z,27.88
2018-03-27T14:01:44.005Z,28.22
2018-03-27T14:04:14.952Z,28.87
2018-03-27T14:06:45.998Z,28.23
2018-03-27T14:09:16.986Z,27.15
2018-03-27T14:11:47.995Z,26.79
2018-03-27T14:14:19.013Z,26.25
2018-03-27T14:16:50.039Z,26.15
2018-03-27T14:19:21.026Z,26.09
2018-03-27T14:21:52.004Z,26.69
2018-03-27T14:24:22.981Z,26.85
2018-03-27T14:26:53.985Z,27.34
2018-03-27T14:29:24.946Z,27.53
2018-03-27T14:31:55.961Z,26.71
2018-03-27T14:34:26.929Z,26.15
2018-03-27T14:36:57.936Z,26.10
2018-03-27T14:39:28.910Z,26.61
2018-03-27T14:41:59.947Z,27.34
2018-03-27T14:44:30.984Z,27.40
2018-03-27T14:47:01.902Z,27.25
2018-03-27T14:49:32.887Z,26.53
2018-03-27T14:52:03.898Z,25.92
2018-03-27T14:54:34.941Z,26.25
2018-03-27T14:57:05.960Z,26.63
2018-03-27T14:59:36.951Z,26.44
2018-03-27T15:02:07.949Z,26.58
2018-03-27T15:04:38.941Z,26.50
2018-03-27T15:07:09.924Z,26.08
2018-03-27T15:09:40.990Z,25.88
2018-03-27T15:12:11.989Z,25.51
2018-03-27T15:14:43.033Z,25.07
2018-03-27T15:17:14.028Z,24.37
2018-03-27T15:19:45.058Z,24.14
2018-03-27T15:22:16.021Z,23.70
2018-03-27T15:24:47.023Z,23.90
2018-03-27T15:27:18.001Z,23.79
2018-03-27T15:29:48.957Z,23.66
2018-03-27T15:32:19.966Z,23.93
2018-03-27T15:34:50.964Z,24.21
2018-03-27T15:37:22.009Z,24.73
2018-03-27T15:39:52.988Z,25.04
2018-03-27T15:42:23.998Z,25.38
2018-03-27T15:44:54.971Z,26.03
2018-03-27T15:47:25.977Z,25.97
2018-03-27T15:49:56.941Z,26.42
2018-03-27T15:52:27.922Z,26.60
2018-03-27T15:54:58.892Z,26.46
2018-03-27T15:57:29.888Z,26.39
2018-03-27T16:00:00.914Z,26.61
2018-03-27T16:02:31.913Z,26.92
2018-03-27T16:05:02.893Z,27.20
2018-03-27T16:07:33.903Z,27.77
2018-03-27T16:10:04.912Z,28.04
2018-03-27T16:12:36.018Z,28.33
2018-03-27T16:15:07.064Z,28.67
2018-03-27T16:17:38.096Z,28.61
2018-03-27T16:20:09.103Z,28.57
2018-03-27T16:22:40.075Z,28.69
2018-03-27T16:25:11.110Z,28.92
2018-03-27T16:27:42.083Z,29.03
2018-03-27T16:30:13.109Z,28.94
2018-03-27T16:32:44.100Z,28.90
2018-03-27T16:35:15.110Z,29.17
2018-03-27T16:37:46.107Z,29.39
2018-03-27T16:40:17.089Z,29.73
2018-03-27T16:42:48.044Z,30.40
2018-03-27T16:45:19.033Z,30.48
2018-03-27T16:47:50.048Z,30.75
2018-03-27T16:50:21.083Z,31.24
2018-03-27T16:52:52.084Z,32.14
2018-03-27T16:55:23.045Z,32.93
2018-03-27T16:57:54.022Z,33.14
2018-03-27T17:00:25.028Z,33.46
2018-03-27T17:02:56.045Z,33.62
2018-03-27T17:05:27.048Z,33.88
2018-03-27T17:07:58.002Z,33.99
2018-03-27T17:10:29.000Z,34.26
2018-03-27T17:12:59.970Z,34.50
2018-03-27T17:15:30.975Z,34.43
2018-03-27T17:18:01.946Z,34.40
2018-03-27T17:20:32.941Z,34.55
2018-03-27T17:23:03.963Z,34.75
2018-03-27T17:25:34.944Z,34.88
2018-03-27T17:28:05.973Z,35.36
2018-03-27T17:30:36.949Z,35.55
2018-03-27T17:33:07.903Z,35.70
2018-03-27T17:35:38.860Z,35.97
2018-03-27T17:38:09.858Z,36.60
2018-03-27T17:40:40.847Z,36.92
2018-03-27T17:43:11.824Z,37.16
2018-03-27T17:45:42.799Z,37.60
2018-03-27T17:48:13.754Z,37.93
2018-03-27T17:50:44.766Z,38.26
2018-03-27T17:53:15.712Z,38.51
2018-03-27T17:55:46.761Z,38.72
2018-03-27T17:58:17.767Z,39.22
2018-03-27T18:00:48.741Z,39.36
2018-03-27T18:03:19.770Z,39.47
2018-03-27T18:05:50.835Z,39.55
2018-03-27T18:08:21.842Z,40.03
2018-03-27T18:10:52.885Z,40.10
2018-03-27T18:13:23.867Z,40.62
2018-03-27T18:15:54.914Z,41.03
2018-03-27T18:18:25.908Z,41.53
2018-03-27T18:20:56.910Z,41.18
2018-03-27T18:23:27.839Z,40.96
2018-03-27T18:25:58.833Z,40.97
2018-03-27T18:28:29.817Z,41.06
2018-03-27T18:31:00.797Z,41.24
2018-03-27T18:33:31.861Z,41.48
2018-03-27T18:36:02.821Z,41.74
2018-03-27T18:38:33.853Z,41.53
2018-03-27T18:41:04.881Z,41.78
2018-03-27T18:43:35.871Z,41.33
2018-03-27T18:46:06.898Z,41.16
2018-03-27T18:48:37.887Z,41.26
2018-03-27T18:51:09.824Z,41.39
2018-03-27T18:53:40.833Z,41.78
2018-03-27T18:56:11.821Z,42.03
2018-03-27T18:58:42.788Z,42.16
2018-03-27T19:01:13.764Z,42.18
2018-03-27T19:03:44.753Z,42.22
2018-03-27T19:06:15.748Z,42.46
2018-03-27T19:08:46.747Z,42.38
2018-03-27T19:11:17.688Z,42.66
2018-03-27T19:13:48.653Z,42.84
2018-03-27T19:16:19.739Z,42.74
2018-03-27T19:18:50.705Z,42.64
2018-03-27T19:21:21.686Z,42.77
2018-03-27T19:23:52.680Z,42.92
2018-03-27T19:26:23.669Z,43.39
2018-03-27T19:28:54.639Z,43.79
2018-03-27T19:31:25.638Z,44.17
2018-03-27T19:33:56.675Z,44.30
2018-03-27T19:36:27.712Z,44.29
2018-03-27T19:38:58.721Z,44.91
2018-03-27T19:41:29.758Z,45.28
2018-03-27T19:44:00.751Z,45.03
2018-03-27T19:46:31.737Z,45.14
2018-03-27T19:49:02.726Z,44.99
2018-03-27T19:51:33.802Z,44.93
2018-03-27T19:54:04.815Z,45.22
2018-03-27T19:56:35.859Z,45.49
2018-03-27T19:59:06.969Z,45.27
2018-03-27T20:01:37.929Z,45.61
2018-03-27T20:04:08.962Z,46.20
2018-03-27T20:06:39.970Z,46.28
2018-03-27T20:09:10.988Z,46.28
2018-03-27T20:11:41.992Z,46.34
2018-03-27T20:14:13.035Z,46.55
2018-03-27T20:16:44.084Z,46.53
2018-03-27T20:19:15.060Z,46.72
2018-03-27T20:21:46.087Z,46.62
2018-03-27T20:24:17.212Z,46.41
2018-03-27T20:26:48.187Z,46.37
2018-03-27T20:29:19.204Z,46.39
2018-03-27T20:31:50.115Z,46.36
2018-03-27T20:34:21.093Z,46.23
2018-03-27T20:36:52.061Z,46.25
2018-03-27T20:39:23.022Z,46.59
2018-03-27T20:41:54.006Z,46.64
2018-03-27T20:44:24.960Z,46.65
2018-03-27T20:46:55.974Z,46.63
2018-03-27T20:49:26.974Z,46.79
2018-03-27T20:51:57.992Z,46.55
2018-03-27T20:54:28.974Z,46.63
2018-03-27T20:57:00.001Z,46.66
2018-03-27T20:59:30.991Z,46.67
2018-03-27T21:02:01.967Z,47.02
2018-03-27T21:04:33.909Z,47.39
2018-03-27T21:07:04.955Z,47.58
2018-03-27T21:09:35.917Z,47.63
2018-03-27T21:12:06.934Z,47.09
2018-03-27T21:14:37.941Z,46.84
2018-03-27T21:17:08.948Z,46.26
2018-03-27T21:19:39.957Z,46.52
2018-03-27T21:22:10.978Z,46.66
2018-03-27T21:24:41.954Z,46.63
2018-03-27T21:27:12.955Z,46.05
2018-03-27T21:29:43.963Z,45.93
2018-03-27T21:32:14.947Z,45.85
2018-03-27T21:34:45.964Z,45.59
2018-03-27T21:37:16.976Z,45.64
2018-03-27T21:39:48.025Z,45.75
2018-03-27T21:42:19.011Z,44.96
2018-03-27T21:44:50.035Z,44.75
2018-03-27T21:47:21.028Z,44.61
2018-03-27T21:49:52.057Z,44.78
2018-03-27T21:52:23.017Z,44.73
2018-03-27T21:54:53.975Z,44.58
2018-03-27T21:57:24.988Z,44.53
2018-03-27T21:59:56.007Z,44.59
2018-03-27T22:02:26.992Z,44.76
2018-03-27T22:04:57.956Z,44.76
2018-03-27T22:07:28.983Z,45.00
2018-03-27T22:09:59.976Z,44.98
2018-03-27T22:12:31.038Z,45.05
2018-03-27T22:15:02.019Z,45.06
2018-03-27T22:17:33.021Z,45.11
2018-03-27T22:20:04.087Z,45.20
2018-03-27T22:22:35.077Z,45.58
2018-03-27T22:25:06.026Z,45.64
2018-03-27T22:27:36.966Z,45.80
2018-03-27T22:30:07.990Z,46.21
2018-03-27T22:32:38.994Z,46.14
2018-03-27T22:35:10.028Z,46.12
2018-03-27T22:37:41.038Z,45.94
2018-03-27T22:40:12.046Z,45.92
2018-03-27T22:42:43.019Z,45.99
2018-03-27T22:45:14.009Z,47.14
2018-03-27T22:47:45.043Z,47.68
2018-03-27T22:50:16.085Z,48.44
2018-03-27T22:52:47.084Z,48.69
2018-03-27T22:55:25.010Z,49.72
2018-03-27T22:57:55.960Z,50.58
2018-03-27T23:00:26.907Z,50.95
2018-03-27T23:02:57.879Z,51.04
2018-03-27T23:05:28.877Z,51.05
2018-03-27T23:07:59.834Z,51.79
2018-03-27T23:10:30.846Z,52.37
2018-03-27T23:13:01.801Z,52.66
2018-03-27T23:15:32.797Z,53.16
2018-03-27T23:18:03.820Z,52.89
2018-03-27T23:20:34.793Z,52.79
2018-03-27T23:23:05.789Z,53.11
2018-03-27T23:25:36.805Z,53.31
2018-03-27T23:28:07.796Z,53.34
2018-03-27T23:30:38.780Z,53.38
2018-03-27T23:33:09.745Z,53.36
2018-03-27T23:35:40.729Z,53.46
2018-03-27T23:38:11.722Z,53.49
2018-03-27T23:40:42.735Z,53.71
2018-03-27T23:43:13.746Z,53.68
2018-03-27T23:45:44.778Z,54.09
2018-03-27T23:48:15.779Z,54.08
2018-03-27T23:50:46.785Z,54.32
2018-03-27T23:53:17.791Z,54.58
2018-03-27T23:55:48.787Z,55.24
2018-03-27T23:58:19.771Z,55.89
